Time;durP1;ratioP1;P1;durP2;ratioP2;P2;SDS_P1;SDS_P2;PMS_P1;PMS_P2;Temp;Humidity;BMP_temperature;BMP_pressure;BME280_temperature;BME280_humidity;BME280_pressure;Samples;Min_cycle;Max_cycle;Signal;HPM_P1;HPM_P2
2021/05/04 00:01:14;;;;;;;0.70;0.70;;;;;;;9.33;64.53;99627.84;5004771;28;20523;-48
2021/05/04 00:03:40;;;;;;;0.30;0.20;;;;;;;9.42;65.58;99612.44;5007960;28;20497;-48
2021/05/04 00:06:06;;;;;;;0.30;0.20;;;;;;;9.46;64.96;99616.75;4994912;28;20453;-48
2021/05/04 00:08:32;;;;;;;0.30;0.20;;;;;;;9.14;66.45;99616.97;5007686;28;20980;-49
2021/05/04 00:10:58;;;;;;;0.30;0.20;;;;;;;9.47;65.24;99599.03;5004504;28;20816;-49
2021/05/04 00:13:24;;;;;;;0.30;0.20;;;;;;;9.34;66.15;99590.66;5005269;28;20446;-48
2021/05/04 00:15:51;;;;;;;0.30;0.20;;;;;;;9.17;67.19;99591.19;5004626;28;20503;-49
2021/05/04 00:18:17;;;;;;;0.30;0.20;;;;;;;9.26;67.59;99589.16;4993616;28;20457;-48
2021/05/04 00:20:43;;;;;;;0.30;0.20;;;;;;;9.53;64.96;99588.19;5003870;28;20874;-48
2021/05/04 00:23:10;;;;;;;0.30;0.20;;;;;;;9.58;64.80;99574.75;5000982;28;20452;-49
2021/05/04 00:25:36;;;;;;;0.40;0.30;;;;;;;9.53;64.73;99568.75;5013884;28;20468;-47
2021/05/04 00:28:02;;;;;;;0.30;0.20;;;;;;;8.99;68.87;99572.41;5010523;28;20462;-48
2021/05/04 00:30:28;;;;;;;0.30;0.20;;;;;;;9.03;68.13;99566.06;5004229;28;20934;-48
2021/05/04 00:32:54;;;;;;;2.87;2.67;;;;;;;9.18;67.54;99565.56;4993040;28;20453;-48
2021/05/04 00:35:20;;;;;;;0.30;0.20;;;;;;;9.08;70.16;99554.41;5003918;28;20523;-48
2021/05/04 00:37:46;;;;;;;0.30;0.20;;;;;;;8.86;69.81;99550.75;4997445;28;20453;-48
2021/05/04 00:40:13;;;;;;;0.30;0.20;;;;;;;8.89;70.34;99546.22;5004620;28;20503;-48
2021/05/04 00:42:39;;;;;;;0.30;0.20;;;;;;;8.97;69.26;99545.09;5001797;28;20657;-49
2021/05/04 00:45:06;;;;;;;0.30;0.20;;;;;;;9.00;68.60;99539.69;5003329;28;20494;-48
2021/05/04 00:47:33;;;;;;;0.80;0.60;;;;;;;9.33;67.64;99535.00;5006985;28;20468;-49
2021/05/04 00:49:59;;;;;;;0.30;0.20;;;;;;;9.20;67.42;99524.84;5006134;28;20476;-48
2021/05/04 00:52:25;;;;;;;0.30;0.20;;;;;;;9.07;68.41;99526.19;5000487;28;20455;-48
2021/05/04 00:54:52;;;;;;;0.30;0.20;;;;;;;9.05;69.38;99512.13;5013467;28;20476;-48
2021/05/04 00:57:19;;;;;;;0.30;0.20;;;;;;;9.23;68.92;99518.56;5012076;28;20500;-49
2021/05/04 00:59:46;;;;;;;0.30;0.20;;;;;;;9.29;67.34;99512.16;5004931;28;20452;-48
2021/05/04 01:02:13;;;;;;;0.30;0.20;;;;;;;8.90;69.59;99504.66;5008825;28;20450;-49
2021/05/04 01:04:41;;;;;;;0.30;0.20;;;;;;;8.55;72.44;99497.94;5004887;28;20606;-49
2021/05/04 01:07:07;;;;;;;0.30;0.20;;;;;;;8.55;72.48;99488.19;5000069;28;20514;-48
2021/05/04 01:09:34;;;;;;;0.30;0.20;;;;;;;8.08;75.28;99489.69;5013447;28;20453;-48
2021/05/04 01:12:00;;;;;;;0.30;0.20;;;;;;;8.01;76.92;99486.38;4995402;28;20449;-48
2021/05/04 01:14:27;;;;;;;0.30;0.20;;;;;;;8.13;75.85;99471.91;5001107;28;20470;-48
2021/05/04 01:16:56;;;;;;;0.30;0.20;;;;;;;8.14;75.38;99470.13;4989262;28;20450;-49
2021/05/04 01:19:23;;;;;;;0.30;0.20;;;;;;;8.18;75.35;99459.38;5005598;28;20957;-49
2021/05/04 01:21:50;;;;;;;0.30;0.20;;;;;;;8.15;76.11;99451.53;4999835;28;20452;-48
2021/05/04 01:24:16;;;;;;;0.30;0.20;;;;;;;8.08;76.47;99460.56;5000577;28;20493;-48
2021/05/04 01:26:44;;;;;;;0.30;0.20;;;;;;;8.10;75.82;99448.19;5006480;28;20577;-48
2021/05/04 01:29:10;;;;;;;1.03;0.97;;;;;;;8.13;76.90;99444.56;5005613;28;20498;-48
2021/05/04 01:31:37;;;;;;;0.30;0.20;;;;;;;8.14;77.00;99444.50;4999587;28;20449;-49
2021/05/04 01:34:06;;;;;;;0.30;0.20;;;;;;;8.13;76.66;99433.97;5000535;28;20477;-49
2021/05/04 01:36:35;;;;;;;0.30;0.20;;;;;;;8.30;76.14;99428.97;5006609;28;20445;-50
2021/05/04 01:39:06;;;;;;;0.40;0.30;;;;;;;8.46;75.25;99435.53;5005463;28;20448;-50
2021/05/04 01:41:33;;;;;;;0.30;0.20;;;;;;;8.73;73.21;99423.13;4993216;28;20450;-50
2021/05/04 01:44:00;;;;;;;0.30;0.20;;;;;;;9.10;71.49;99427.97;4978287;28;20990;-50
2021/05/04 01:46:31;;;;;;;0.30;0.20;;;;;;;9.39;69.03;99418.94;5005811;28;20461;-50
2021/05/04 01:49:05;;;;;;;0.30;0.20;;;;;;;9.65;66.31;99414.44;5012024;28;20820;-51
2021/05/04 01:51:33;;;;;;;0.30;0.20;;;;;;;9.90;65.48;99403.72;5002512;28;20453;-51
2021/05/04 01:54:00;;;;;;;0.30;0.20;;;;;;;10.10;64.69;99396.66;5006176;28;20827;-50
2021/05/04 01:56:26;;;;;;;0.30;0.20;;;;;;;10.31;63.10;99400.25;5009030;28;20447;-51
2021/05/04 01:58:55;;;;;;;0.30;0.20;;;;;;;10.37;62.49;99389.38;5002252;28;20452;-48
2021/05/04 02:01:21;;;;;;;0.30;0.20;;;;;;;10.59;61.56;99385.81;4984575;28;20512;-49
2021/05/04 02:03:47;;;;;;;0.30;0.20;;;;;;;10.72;60.97;99384.34;5006307;28;20860;-48
2021/05/04 02:06:13;;;;;;;0.30;0.20;;;;;;;10.81;60.58;99378.59;5004182;28;21045;-49
2021/05/04 02:08:40;;;;;;;0.30;0.20;;;;;;;10.92;60.75;99367.50;4999514;28;20461;-48
2021/05/04 02:11:06;;;;;;;0.30;0.20;;;;;;;11.04;60.07;99374.06;5001613;28;20943;-48
2021/05/04 02:13:33;;;;;;;0.30;0.20;;;;;;;11.04;60.04;99358.09;5005963;28;20452;-48
2021/05/04 02:15:59;;;;;;;0.30;0.20;;;;;;;11.14;60.01;99359.41;5004556;28;20453;-49
2021/05/04 02:18:25;;;;;;;0.30;0.20;;;;;;;11.24;59.82;99355.41;4999387;28;20946;-49
2021/05/04 02:20:51;;;;;;;0.30;0.20;;;;;;;11.17;59.26;99349.50;5012586;28;20475;-48
2021/05/04 02:23:17;;;;;;;0.30;0.20;;;;;;;11.26;59.16;99346.41;4998807;28;20452;-49
2021/05/04 02:25:43;;;;;;;0.30;0.20;;;;;;;11.13;59.56;99337.28;5012657;28;20453;-49
2021/05/04 02:28:10;;;;;;;0.30;0.20;;;;;;;11.17;59.43;99338.84;4999416;28;20456;-49
2021/05/04 02:30:36;;;;;;;0.30;0.20;;;;;;;11.11;59.82;99327.66;5001746;28;20458;-48
2021/05/04 02:33:02;;;;;;;0.30;0.20;;;;;;;11.21;59.68;99327.13;5010253;28;20456;-49
2021/05/04 02:35:29;;;;;;;0.37;0.30;;;;;;;11.28;58.91;99325.06;5026229;23;20496;-56
2021/05/04 02:37:55;;;;;;;0.30;0.20;;;;;;;11.17;59.55;99314.91;5012173;28;20455;-56
2021/05/04 02:40:21;;;;;;;0.33;0.20;;;;;;;11.36;59.38;99300.75;5012101;28;20452;-56
2021/05/04 02:42:47;;;;;;;0.30;0.20;;;;;;;11.24;59.30;99302.22;5012130;28;20453;-56
2021/05/04 02:45:15;;;;;;;0.30;0.20;;;;;;;11.20;59.93;99285.50;5012173;28;20550;-57
2021/05/04 02:47:42;;;;;;;0.30;0.20;;;;;;;11.38;59.14;99288.25;5012113;28;20457;-56
2021/05/04 02:50:09;;;;;;;0.30;0.20;;;;;;;11.32;59.92;99278.75;5012741;28;20515;-56
2021/05/04 02:52:35;;;;;;;0.30;0.20;;;;;;;11.46;59.42;99278.94;5002354;28;20452;-57
2021/05/04 02:55:01;;;;;;;0.30;0.20;;;;;;;11.41;59.47;99280.13;5015485;28;20977;-56
2021/05/04 02:57:27;;;;;;;0.30;0.20;;;;;;;11.49;59.35;99273.47;5017772;28;20780;-57
2021/05/04 02:59:53;;;;;;;0.30;0.20;;;;;;;11.37;59.68;99273.19;5008477;28;20568;-56
2021/05/04 03:02:19;;;;;;;0.40;0.30;;;;;;;11.57;59.47;99263.31;5015373;28;21055;-57
2021/05/04 03:04:46;;;;;;;0.30;0.20;;;;;;;11.57;59.39;99262.47;5015324;28;20835;-56
2021/05/04 03:07:12;;;;;;;0.30;0.20;;;;;;;11.72;59.08;99248.38;5015184;28;20456;-57
2021/05/04 03:09:39;;;;;;;0.30;0.20;;;;;;;11.46;59.62;99254.13;5015521;28;20567;-57
2021/05/04 03:12:05;;;;;;;0.30;0.20;;;;;;;11.44;60.09;99251.53;5015294;28;20459;-56
2021/05/04 03:14:32;;;;;;;0.30;0.20;;;;;;;11.66;59.16;99240.72;5003305;28;20473;-56
2021/05/04 03:16:58;;;;;;;0.30;0.20;;;;;;;11.57;59.42;99231.38;5014144;28;20824;-56
2021/05/04 03:19:24;;;;;;;0.30;0.20;;;;;;;11.73;59.67;99223.47;5015206;28;20479;-56
2021/05/04 03:21:50;;;;;;;0.30;0.20;;;;;;;11.81;59.14;99225.81;5014896;28;20938;-56
2021/05/04 03:24:16;;;;;;;0.30;0.20;;;;;;;11.73;59.20;99220.81;5002944;28;20496;-56
2021/05/04 03:26:45;;;;;;;0.30;0.20;;;;;;;11.74;59.05;99205.72;5014217;28;21011;-56
2021/05/04 03:29:11;;;;;;;0.30;0.20;;;;;;;11.69;58.71;99213.06;4997460;28;20957;-55
2021/05/04 03:31:37;;;;;;;0.60;0.60;;;;;;;11.72;58.83;99200.47;5014847;28;20461;-56
2021/05/04 03:34:03;;;;;;;0.30;0.20;;;;;;;11.88;58.13;99202.38;5014773;28;20550;-57
2021/05/04 03:36:29;;;;;;;0.30;0.20;;;;;;;11.95;58.14;99206.47;5014671;28;20448;-57
2021/05/04 03:38:56;;;;;;;0.30;0.20;;;;;;;11.85;58.29;99204.25;5015216;28;20511;-56
2021/05/04 03:41:22;;;;;;;0.30;0.20;;;;;;;12.00;57.42;99185.75;5014859;28;20451;-56
2021/05/04 03:43:48;;;;;;;0.80;0.80;;;;;;;12.02;58.08;99190.06;5002274;28;20492;-56
2021/05/04 03:46:14;;;;;;;0.30;0.20;;;;;;;11.95;57.46;99172.69;5014068;28;20954;-56
2021/05/04 03:48:44;;;;;;;0.30;0.20;;;;;;;12.08;56.82;99183.56;5014447;28;20484;-56
2021/05/04 03:51:10;;;;;;;0.40;0.40;;;;;;;12.08;56.87;99180.91;5007073;28;20461;-56
2021/05/04 03:53:38;;;;;;;0.30;0.20;;;;;;;12.17;57.05;99172.41;5008905;28;20460;-56
2021/05/04 03:56:05;;;;;;;0.30;0.20;;;;;;;12.08;56.96;99168.44;5017002;28;20452;-56
2021/05/04 03:58:32;;;;;;;0.30;0.20;;;;;;;12.06;56.51;99162.34;5006616;28;20481;-56
2021/05/04 04:00:58;;;;;;;0.30;0.20;;;;;;;12.15;56.09;99164.50;5014526;28;20452;-56
2021/05/04 04:03:24;;;;;;;0.53;0.50;;;;;;;12.16;56.07;99163.56;5013478;28;20463;-57
2021/05/04 04:05:52;;;;;;;0.30;0.20;;;;;;;12.25;55.86;99156.03;5014190;28;20469;-56
2021/05/04 04:08:19;;;;;;;0.30;0.20;;;;;;;12.23;55.98;99157.91;5014322;28;20445;-56
2021/05/04 04:10:46;;;;;;;0.30;0.20;;;;;;;12.29;55.83;99160.25;5014235;28;20452;-57
2021/05/04 04:13:13;;;;;;;0.30;0.20;;;;;;;12.20;55.35;99150.97;5012524;28;20457;-57
2021/05/04 04:15:40;;;;;;;0.30;0.20;;;;;;;12.41;55.42;99157.78;5002970;28;20542;-57
2021/05/04 04:18:06;;;;;;;0.30;0.20;;;;;;;12.38;55.48;99151.75;5013915;28;20488;-57
2021/05/04 04:20:32;;;;;;;0.30;0.20;;;;;;;12.31;55.57;99145.03;5014178;28;20539;-56
2021/05/04 04:22:58;;;;;;;0.30;0.20;;;;;;;12.29;55.55;99136.25;5013947;28;20506;-57
2021/05/04 04:25:24;;;;;;;0.30;0.20;;;;;;;12.34;55.65;99143.09;5013875;28;20492;-56
2021/05/04 04:27:51;;;;;;;0.30;0.20;;;;;;;12.48;55.50;99147.66;5013828;28;20456;-57
2021/05/04 04:30:19;;;;;;;0.30;0.20;;;;;;;12.49;54.98;99144.06;5013884;28;20504;-56
2021/05/04 04:32:45;;;;;;;0.50;0.40;;;;;;;12.53;54.66;99147.41;5013434;28;20453;-57
2021/05/04 04:35:12;;;;;;;0.30;0.20;;;;;;;12.39;55.45;99145.50;5013693;28;20483;-57
2021/05/04 04:37:39;;;;;;;0.30;0.20;;;;;;;12.45;55.19;99134.47;5013754;28;20503;-57
2021/05/04 04:40:06;;;;;;;0.30;0.20;;;;;;;12.51;54.80;99135.97;5013794;28;20673;-57
2021/05/04 04:42:32;;;;;;;0.30;0.20;;;;;;;12.53;54.63;99136.72;5010425;28;20461;-57
2021/05/04 04:44:59;;;;;;;0.30;0.20;;;;;;;12.34;55.10;99145.75;5003589;28;20496;-57
2021/05/04 04:47:25;;;;;;;0.30;0.20;;;;;;;12.38;55.08;99143.78;5013369;28;20455;-57
2021/05/04 04:49:51;;;;;;;0.30;0.20;;;;;;;12.44;55.39;99159.41;5013673;28;20454;-57
2021/05/04 04:52:17;;;;;;;0.30;0.20;;;;;;;12.43;55.19;99155.03;5000212;28;20448;-57
2021/05/04 04:54:43;;;;;;;0.30;0.20;;;;;;;12.36;55.20;99145.66;5013330;28;20823;-56
2021/05/04 04:57:09;;;;;;;0.30;0.20;;;;;;;12.42;54.71;99142.66;5017176;28;20504;-56
2021/05/04 04:59:36;;;;;;;0.30;0.20;;;;;;;12.53;55.32;99137.59;5004195;28;20453;-56
2021/05/04 05:02:03;;;;;;;0.30;0.20;;;;;;;12.41;54.63;99144.47;5013142;28;20455;-55
2021/05/04 05:04:29;;;;;;;0.30;0.20;;;;;;;12.39;54.88;99149.00;5013127;28;20543;-56
2021/05/04 05:06:55;;;;;;;0.30;0.20;;;;;;;12.29;55.35;99152.25;5013009;28;20456;-55
2021/05/04 05:09:21;;;;;;;0.30;0.20;;;;;;;12.44;54.88;99160.28;5013101;28;20464;-56
2021/05/04 05:11:48;;;;;;;0.30;0.20;;;;;;;12.46;55.31;99153.03;5013141;28;20457;-56
2021/05/04 05:14:14;;;;;;;0.30;0.20;;;;;;;12.30;56.01;99135.31;5002723;28;21057;-57
2021/05/04 05:16:41;;;;;;;0.60;0.57;;;;;;;12.48;54.45;99145.00;4993541;28;20945;-56
2021/05/04 05:19:07;;;;;;;0.30;0.20;;;;;;;12.52;55.13;99135.03;5012933;28;20868;-56
2021/05/04 05:21:36;;;;;;;0.30;0.20;;;;;;;12.46;54.73;99131.72;4995535;28;20453;-55
2021/05/04 05:24:03;;;;;;;0.30;0.20;;;;;;;12.43;53.97;99120.38;5012805;28;20492;-56
2021/05/04 05:26:30;;;;;;;0.70;0.70;;;;;;;12.51;54.28;99134.16;5012905;28;20452;-56
2021/05/04 05:28:57;;;;;;;0.53;0.53;;;;;;;12.44;54.49;99122.97;5012792;28;20453;-54
2021/05/04 05:31:26;;;;;;;0.30;0.20;;;;;;;12.42;54.66;99132.00;5002951;28;21351;-54
2021/05/04 05:33:53;;;;;;;0.30;0.20;;;;;;;12.43;54.89;99141.69;5000160;28;20855;-54
2021/05/04 05:36:20;;;;;;;0.30;0.20;;;;;;;12.57;54.46;99111.63;5010554;28;20441;-54
2021/05/04 05:38:47;;;;;;;0.30;0.20;;;;;;;12.69;54.44;99109.13;5012766;28;20452;-54
2021/05/04 05:41:14;;;;;;;0.30;0.20;;;;;;;12.60;54.40;99106.13;4995231;28;20452;-54
2021/05/04 05:43:40;;;;;;;0.30;0.20;;;;;;;12.56;54.85;99116.09;5000078;28;20476;-54
2021/05/04 05:46:06;;;;;;;0.30;0.20;;;;;;;12.57;53.74;99114.28;5011859;28;20460;-54
2021/05/04 05:48:32;;;;;;;0.30;0.20;;;;;;;12.70;54.41;99102.00;5012739;28;20456;-54
2021/05/04 05:50:58;;;;;;;0.30;0.20;;;;;;;12.59;53.32;99105.25;5006784;28;20450;-54
2021/05/04 05:53:25;;;;;;;0.30;0.20;;;;;;;12.65;53.66;99112.94;5005253;28;20503;-55
2021/05/04 05:55:51;;;;;;;0.30;0.20;;;;;;;12.69;53.31;99114.47;5013218;28;20464;-55
2021/05/04 05:58:17;;;;;;;0.30;0.20;;;;;;;12.84;53.88;99110.06;4990518;28;20512;-55
2021/05/04 06:00:43;;;;;;;0.30;0.20;;;;;;;12.78;53.48;99125.56;5011612;28;20452;-54
2021/05/04 06:03:09;;;;;;;0.30;0.20;;;;;;;12.84;53.10;99125.22;5012899;28;20499;-54
2021/05/04 06:05:35;;;;;;;0.30;0.20;;;;;;;12.83;52.71;99119.03;5012301;28;20496;-55
2021/05/04 06:08:03;;;;;;;0.30;0.20;;;;;;;12.74;52.06;99117.72;5012441;28;20448;-54
2021/05/04 06:10:30;;;;;;;0.30;0.20;;;;;;;12.78;52.48;99120.25;5012282;28;20467;-55
2021/05/04 06:13:06;;;;;;;0.30;0.20;;;;;;;12.85;52.48;99124.25;4994992;28;20515;-56
2021/05/04 06:15:34;;;;;;;0.30;0.20;;;;;;;12.88;52.43;99121.41;4999562;28;20812;-56
2021/05/04 06:18:00;;;;;;;0.30;0.20;;;;;;;12.88;53.09;99126.75;5012296;28;20496;-55
2021/05/04 06:20:26;;;;;;;0.40;0.33;;;;;;;12.82;52.28;99119.09;5012315;28;20453;-56
2021/05/04 06:22:53;;;;;;;0.40;0.30;;;;;;;12.95;52.33;99118.31;5012317;28;20507;-55
2021/05/04 06:25:19;;;;;;;0.30;0.20;;;;;;;13.11;52.01;99122.78;5013031;28;20519;-56
2021/05/04 06:27:45;;;;;;;0.30;0.20;;;;;;;13.20;52.25;99117.81;5016348;28;20471;-56
2021/05/04 06:30:13;;;;;;;0.30;0.20;;;;;;;13.20;53.13;99112.47;4998785;28;20486;-56
2021/05/04 06:32:41;;;;;;;0.30;0.20;;;;;;;13.01;53.62;99120.63;4998573;28;20449;-56
2021/05/04 06:35:08;;;;;;;0.30;0.20;;;;;;;13.01;54.66;99117.97;5015714;28;20480;-55
2021/05/04 06:37:34;;;;;;;0.30;0.20;;;;;;;12.87;55.81;99122.38;5015434;28;20881;-55
2021/05/04 06:40:01;;;;;;;0.30;0.20;;;;;;;12.98;54.85;99127.97;5016141;28;20475;-56
2021/05/04 06:42:27;;;;;;;0.30;0.20;;;;;;;12.85;54.48;99113.59;5013683;28;21017;-56
2021/05/04 06:44:54;;;;;;;0.30;0.20;;;;;;;12.57;56.29;99127.63;5004702;28;20492;-56
2021/05/04 06:47:20;;;;;;;0.30;0.20;;;;;;;12.62;60.41;99128.25;5015795;28;20449;-55
2021/05/04 06:49:46;;;;;;;0.30;0.20;;;;;;;12.48;61.39;99126.34;5015732;28;20536;-55
2021/05/04 06:52:12;;;;;;;0.30;0.20;;;;;;;12.44;63.30;99141.63;5002233;28;20453;-55
2021/05/04 06:54:40;;;;;;;0.30;0.20;;;;;;;12.26;61.65;99152.41;5015499;28;20522;-56
2021/05/04 06:57:06;;;;;;;0.30;0.20;;;;;;;12.10;60.38;99133.75;5020934;28;20504;-55
2021/05/04 06:59:32;;;;;;;0.30;0.30;;;;;;;12.04;63.21;99147.38;5005428;28;20456;-55
2021/05/04 07:01:59;;;;;;;0.30;0.20;;;;;;;11.94;65.56;99141.69;5015514;28;20448;-56
2021/05/04 07:04:26;;;;;;;0.30;0.20;;;;;;;12.08;66.51;99144.47;5015393;28;20504;-55
2021/05/04 07:06:52;;;;;;;0.30;0.20;;;;;;;12.04;65.67;99155.34;5015318;28;20514;-55
2021/05/04 07:09:18;;;;;;;0.30;0.20;;;;;;;12.09;67.03;99145.34;5015582;28;20452;-55
2021/05/04 07:11:45;;;;;;;0.30;0.20;;;;;;;12.13;65.70;99153.06;5015371;28;20459;-56
2021/05/04 07:14:11;;;;;;;0.30;0.20;;;;;;;12.16;67.13;99150.25;5005511;28;20468;-55
2021/05/04 07:16:39;;;;;;;0.30;0.20;;;;;;;11.92;69.22;99140.88;5012111;28;20457;-55
2021/05/04 07:19:06;;;;;;;0.30;0.20;;;;;;;12.04;71.41;99134.03;5015263;28;20463;-55
2021/05/04 07:21:34;;;;;;;0.30;0.20;;;;;;;11.89;72.07;99130.41;5014889;28;20456;-55
2021/05/04 07:24:00;;;;;;;0.30;0.20;;;;;;;11.92;72.43;99138.22;5014880;28;20977;-55
2021/05/04 07:26:27;;;;;;;0.30;0.20;;;;;;;11.73;70.49;99130.31;5014993;28;20480;-55
2021/05/04 07:28:54;;;;;;;0.30;0.20;;;;;;;11.41;72.25;99139.94;5015042;28;20459;-55
2021/05/04 07:31:20;;;;;;;0.30;0.20;;;;;;;11.35;73.51;99156.19;5015098;28;20448;-55
2021/05/04 07:33:46;;;;;;;0.30;0.20;;;;;;;11.38;74.30;99165.84;5014749;28;20453;-55
2021/05/04 07:36:12;;;;;;;0.30;0.20;;;;;;;11.11;76.26;99158.31;5014210;28;20511;-55
2021/05/04 07:38:38;;;;;;;0.30;0.20;;;;;;;11.01;78.20;99172.97;5014332;28;20456;-55
2021/05/04 07:41:07;;;;;;;0.30;0.20;;;;;;;10.94;80.32;99172.38;5014730;28;20457;-55
2021/05/04 07:43:33;;;;;;;0.30;0.20;;;;;;;10.76;79.09;99151.16;5003626;28;20453;-55
2021/05/04 07:45:59;;;;;;;0.30;0.20;;;;;;;10.93;80.48;99159.19;5012631;28;20496;-55
2021/05/04 07:48:25;;;;;;;0.30;0.20;;;;;;;10.70;79.66;99170.06;5014710;28;20870;-55
2021/05/04 07:50:51;;;;;;;0.30;0.20;;;;;;;10.91;80.62;99159.25;5009473;28;20461;-55
2021/05/04 07:53:17;;;;;;;0.30;0.20;;;;;;;10.93;80.87;99162.69;4989347;28;20453;-55
2021/05/04 07:55:43;;;;;;;0.30;0.20;;;;;;;11.08;79.44;99157.56;5014249;28;20986;-55
2021/05/04 07:58:10;;;;;;;0.30;0.20;;;;;;;11.05;78.12;99163.03;5010496;28;20452;-55
2021/05/04 08:00:36;;;;;;;0.30;0.20;;;;;;;10.97;78.61;99158.13;5012981;28;20457;-55
2021/05/04 08:03:02;;;;;;;0.30;0.20;;;;;;;11.05;77.84;99173.69;5014253;28;20459;-55
2021/05/04 08:05:29;;;;;;;0.30;0.20;;;;;;;10.94;78.22;99158.25;5014140;28;20500;-54
2021/05/04 08:07:55;;;;;;;0.30;0.20;;;;;;;10.89;77.93;99160.28;4996869;28;20452;-54
2021/05/04 08:10:21;;;;;;;0.30;0.20;;;;;;;10.84;77.28;99151.66;5014386;28;20449;-55
2021/05/04 08:12:47;;;;;;;0.30;0.20;;;;;;;11.09;77.12;99148.66;5014230;28;20453;-55
2021/05/04 08:15:23;;;;;;;0.30;0.20;;;;;;;11.08;76.45;99158.44;5001052;28;20468;-55
2021/05/04 08:17:55;;;;;;;0.30;0.20;;;;;;;11.14;75.94;99146.66;5013945;28;20817;-55
2021/05/04 08:20:25;;;;;;;6.73;1.23;;;;;;;11.21;76.25;99137.41;5014066;28;20508;-55
2021/05/04 08:22:52;;;;;;;0.30;0.20;;;;;;;11.22;75.21;99144.44;5013970;28;20448;-55
2021/05/04 08:25:19;;;;;;;0.30;0.20;;;;;;;11.31;74.19;99144.00;5013778;28;20933;-56
2021/05/04 08:27:46;;;;;;;0.30;0.20;;;;;;;11.34;75.43;99130.53;5014003;28;20522;-56
2021/05/04 08:30:13;;;;;;;0.30;0.20;;;;;;;11.44;74.99;99165.53;4996422;28;20459;-55
2021/05/04 08:32:55;;;;;;;0.30;0.20;;;;;;;11.26;76.25;99162.88;5013960;28;20445;-56
2021/05/04 08:35:22;;;;;;;0.30;0.20;;;;;;;11.44;75.83;99165.53;5013627;28;20476;-56
2021/05/04 08:37:48;;;;;;;0.30;0.20;;;;;;;11.38;75.91;99161.41;5014271;28;21008;-54
2021/05/04 08:40:14;;;;;;;0.30;0.20;;;;;;;11.36;75.83;99163.25;5013749;28;20510;-55
2021/05/04 08:42:41;;;;;;;1.47;1.47;;;;;;;11.32;76.13;99147.53;4991652;28;20520;-54
2021/05/04 08:45:08;;;;;;;0.30;0.20;;;;;;;11.32;76.66;99153.72;4987783;28;20504;-54
2021/05/04 08:47:35;;;;;;;0.30;0.20;;;;;;;11.37;76.46;99143.69;5013551;28;20849;-54
2021/05/04 08:50:03;;;;;;;0.30;0.20;;;;;;;11.42;76.31;99147.00;5013091;28;20467;-55
2021/05/04 08:52:29;;;;;;;0.30;0.20;;;;;;;11.47;76.77;99150.28;5000249;28;20887;-55
2021/05/04 08:54:55;;;;;;;0.30;0.20;;;;;;;11.47;75.75;99136.97;5013381;28;20473;-55
2021/05/04 08:57:21;;;;;;;0.30;0.20;;;;;;;11.28;76.74;99123.75;5015681;28;20947;-54
2021/05/04 08:59:47;;;;;;;0.30;0.20;;;;;;;11.54;76.13;99129.53;4988363;28;20448;-55
2021/05/04 09:02:14;;;;;;;0.30;0.20;;;;;;;11.57;76.45;99132.03;5013532;28;20472;-55
2021/05/04 09:04:50;;;;;;;0.30;0.20;;;;;;;11.39;77.32;99140.97;4995828;28;20583;-55
2021/05/04 09:07:33;;;;;;;0.30;0.20;;;;;;;11.46;76.96;99113.97;5013399;28;20486;-55
2021/05/04 09:21:14;;;;;;;0.30;0.20;;;;;;;11.44;78.25;99130.94;5013002;28;20503;-55
2021/05/04 09:23:43;;;;;;;0.30;0.20;;;;;;;11.43;77.93;99126.56;5012993;28;20453;-55
2021/05/04 09:26:21;;;;;;;0.30;0.20;;;;;;;11.28;78.69;99122.88;5012847;28;20841;-55
2021/05/04 09:28:48;;;;;;;0.30;0.20;;;;;;;11.43;78.52;99134.53;5012899;28;20535;-55
2021/05/04 09:31:29;;;;;;;0.40;0.23;;;;;;;11.47;78.24;99121.00;5012973;28;20459;-56
2021/05/04 09:34:07;;;;;;;0.30;0.20;;;;;;;11.32;78.56;99129.75;5012571;28;20969;-56
2021/05/04 09:36:40;;;;;;;0.30;0.20;;;;;;;11.40;78.97;99132.91;4993272;28;20446;-56
2021/05/04 09:39:08;;;;;;;0.30;0.20;;;;;;;11.35;79.16;99139.38;5008177;28;20452;-56
2021/05/04 09:41:35;;;;;;;0.30;0.20;;;;;;;11.46;79.30;99132.59;5012969;28;20456;-55
2021/05/04 09:44:01;;;;;;;0.30;0.20;;;;;;;11.37;79.83;99132.19;4981903;28;20484;-55
2021/05/04 09:46:44;;;;;;;0.30;0.20;;;;;;;11.34;80.30;99125.22;5012909;28;20985;-55
2021/05/04 09:49:34;;;;;;;0.30;0.20;;;;;;;11.54;79.38;99113.56;5012537;28;20809;-55
2021/05/04 09:52:32;;;;;;;0.30;0.20;;;;;;;11.44;80.03;99113.19;4999760;28;20481;-55
2021/05/04 09:55:09;;;;;;;0.30;0.20;;;;;;;11.39;79.71;99106.38;5012440;28;20460;-55
2021/05/04 09:57:39;;;;;;;0.30;0.20;;;;;;;11.64;79.86;99108.63;5008021;28;20457;-54
2021/05/04 10:00:09;;;;;;;0.30;0.20;;;;;;;11.44;80.29;99097.22;5008390;28;20514;-55
2021/05/04 10:02:36;;;;;;;0.60;0.60;;;;;;;11.50;79.86;99099.53;5016751;28;20453;-55
2021/05/04 10:05:05;;;;;;;0.30;0.20;;;;;;;11.51;80.16;99111.06;5016364;28;20503;-56
2021/05/04 10:07:32;;;;;;;0.30;0.20;;;;;;;11.56;80.04;99107.22;5016507;28;20510;-55
2021/05/04 10:10:03;;;;;;;0.30;0.20;;;;;;;11.47;81.09;99134.31;5016566;28;20503;-55
2021/05/04 10:12:29;;;;;;;0.30;0.20;;;;;;;11.54;80.67;99117.09;5016383;28;20450;-55
2021/05/04 10:15:05;;;;;;;0.30;0.20;;;;;;;11.68;81.08;99132.34;5003431;28;20468;-55
2021/05/04 10:17:33;;;;;;;0.30;0.20;;;;;;;11.43;81.44;99107.94;5016493;28;20897;-55
2021/05/04 10:20:18;;;;;;;0.30;0.20;;;;;;;11.48;81.56;99114.72;5016173;28;20464;-55
2021/05/04 10:22:46;;;;;;;0.30;0.20;;;;;;;11.51;81.07;99111.94;5016111;28;20535;-55
2021/05/04 10:25:16;;;;;;;0.30;0.20;;;;;;;11.55;81.10;99125.94;5016138;28;20904;-55
2021/05/04 10:27:43;;;;;;;0.30;0.20;;;;;;;11.44;81.75;99128.28;5016086;28;20506;-54
2021/05/04 10:30:11;;;;;;;0.30;0.20;;;;;;;11.43;82.02;99140.72;5016452;28;20464;-54
2021/05/04 10:32:57;;;;;;;0.30;0.20;;;;;;;11.44;82.03;99129.16;5016444;28;20444;-54
2021/05/04 10:35:29;;;;;;;0.30;0.20;;;;;;;11.56;82.14;99128.53;5016540;28;20483;-56
2021/05/04 10:37:56;;;;;;;0.30;0.20;;;;;;;11.76;80.17;99102.66;5016592;28;20449;-57
2021/05/04 10:40:29;;;;;;;0.30;0.20;;;;;;;11.84;80.39;99103.16;5016126;28;20448;-57
2021/05/04 10:43:21;;;;;;;0.30;0.20;;;;;;;12.09;79.63;99110.72;4992747;28;20457;-57
2021/05/04 10:45:55;;;;;;;0.30;0.20;;;;;;;12.31;79.23;99100.59;5011952;28;20488;-57
2021/05/04 10:48:40;;;;;;;0.30;0.20;;;;;;;12.31;79.31;99100.59;5015965;28;20485;-56
2021/05/04 10:51:17;;;;;;;0.30;0.20;;;;;;;12.25;79.05;99108.94;4996245;28;20448;-57
2021/05/04 10:53:52;;;;;;;0.30;0.20;;;;;;;12.39;79.50;99097.53;5011287;28;20448;-57
2021/05/04 10:56:36;;;;;;;0.30;0.20;;;;;;;12.29;79.03;99114.94;5020494;28;20443;-56
2021/05/04 10:59:04;;;;;;;0.30;0.20;;;;;;;12.29;79.02;99102.47;5003073;28;20459;-57
2021/05/04 11:01:30;;;;;;;0.30;0.20;;;;;;;12.26;78.53;99101.78;5015579;28;20507;-56
2021/05/04 11:04:02;;;;;;;1.73;1.73;;;;;;;12.18;78.91;99098.69;5015452;28;20472;-57
2021/05/04 11:06:29;;;;;;;0.30;0.20;;;;;;;12.31;78.05;99097.06;5015240;28;20575;-57
2021/05/04 11:08:57;;;;;;;0.30;0.20;;;;;;;12.39;78.17;99103.72;5015652;28;20456;-57
2021/05/04 11:11:28;;;;;;;0.30;0.20;;;;;;;12.42;78.33;99086.69;5015238;28;20449;-57
2021/05/04 11:13:59;;;;;;;0.30;0.20;;;;;;;12.49;78.32;99087.22;5007246;28;20500;-57
2021/05/04 11:16:47;;;;;;;0.30;0.20;;;;;;;12.54;77.96;99078.00;4994184;28;20449;-57
2021/05/04 11:19:29;;;;;;;0.30;0.20;;;;;;;12.57;77.78;99091.16;5015242;28;20536;-57
2021/05/04 11:21:58;;;;;;;0.30;0.20;;;;;;;12.69;77.19;99079.81;5015404;28;20460;-57
2021/05/04 11:24:34;;;;;;;0.30;0.20;;;;;;;12.87;76.87;99077.03;5015116;28;20532;-57
2021/05/04 11:27:16;;;;;;;0.30;0.20;;;;;;;12.94;76.60;99068.59;5015173;28;20459;-56
2021/05/04 11:29:45;;;;;;;0.30;0.20;;;;;;;13.12;76.00;99055.13;5014984;28;20947;-56
2021/05/04 11:32:19;;;;;;;0.30;0.20;;;;;;;13.33;75.86;99061.91;5015235;28;20454;-56
2021/05/04 11:34:50;;;;;;;0.30;0.20;;;;;;;13.15;75.71;99071.81;4995407;28;20516;-56
2021/05/04 11:37:20;;;;;;;0.30;0.20;;;;;;;13.23;74.25;99064.25;5009104;28;20452;-56
2021/05/04 11:39:59;;;;;;;0.30;0.20;;;;;;;13.24;75.06;99065.13;5014766;28;20483;-57
2021/05/04 11:42:41;;;;;;;0.50;0.50;;;;;;;13.17;75.44;99080.59;5014825;28;20969;-56
2021/05/04 11:45:10;;;;;;;0.30;0.20;;;;;;;13.01;76.17;99077.94;4985690;28;20564;-56
2021/05/04 11:47:39;;;;;;;0.30;0.20;;;;;;;13.31;75.15;99080.69;5013704;28;20452;-56
2021/05/04 11:50:18;;;;;;;0.30;0.20;;;;;;;13.12;75.97;99077.34;5014125;28;20804;-56